Time;durP1;ratioP1;P1;durP2;ratioP2;P2;SDS_P1;SDS_P2;PMS_P1;PMS_P2;Temp;Humidity;BMP_temperature;BMP_pressure;BME280_temperature;BME280_humidity;BME280_pressure;Samples;Min_cycle;Max_cycle;Signal;HPM_P1;HPM_P2
2022/08/04 00:01:06;;;;;;;1999.90;999.90;;;25.60;86.90;;;;;;4993453;28;20026;-75
2022/08/04 00:03:42;;;;;;;1999.90;999.90;;;25.50;87.30;;;;;;5005435;28;20026;-78
2022/08/04 00:06:30;;;;;;;1999.90;999.90;;;25.40;87.20;;;;;;5013753;28;20022;-78
2022/08/04 00:09:00;;;;;;;1999.90;999.90;;;25.40;87.20;;;;;;5013746;28;20511;-78
2022/08/04 00:11:29;;;;;;;1999.90;999.90;;;25.40;87.30;;;;;;5013117;28;20509;-75
2022/08/04 00:14:04;;;;;;;1999.90;999.90;;;25.30;86.60;;;;;;5013552;28;20030;-75
2022/08/04 00:16:33;;;;;;;1999.90;999.90;;;25.30;86.70;;;;;;5013484;28;20029;-78
2022/08/04 00:19:36;;;;;;;1999.90;999.90;;;25.30;86.80;;;;;;5013156;28;20041;-76
2022/08/04 00:22:08;;;;;;;1999.90;999.90;;;25.20;86.90;;;;;;5013101;28;20045;-75
2022/08/04 00:24:34;;;;;;;;;;;25.20;85.80;;;;;;5013843;28;20493;-75
2022/08/04 00:27:01;;;;;;;1999.90;999.90;;;25.20;84.90;;;;;;5013161;28;19905;-75
2022/08/04 00:29:27;;;;;;;1999.90;999.90;;;25.20;85.00;;;;;;5013195;28;20397;-78
2022/08/04 00:31:55;;;;;;;1999.90;999.90;;;25.20;85.10;;;;;;5013210;28;20382;-75
2022/08/04 00:34:26;;;;;;;1999.90;999.90;;;25.10;85.50;;;;;;5013030;28;20028;-78
2022/08/04 00:36:53;;;;;;;1999.90;999.90;;;25.10;85.60;;;;;;5012059;28;20052;-78
2022/08/04 00:39:20;;;;;;;1999.90;999.90;;;25.00;85.70;;;;;;5013620;28;20018;-75
2022/08/04 00:41:45;;;;;;;1999.90;999.90;;;24.90;86.00;;;;;;5012941;28;20037;-78
2022/08/04 00:44:31;;;;;;;1999.90;999.90;;;24.80;86.50;;;;;;5013426;28;20017;-75
2022/08/04 00:47:03;;;;;;;1999.90;999.90;;;24.70;87.10;;;;;;5002024;28;20493;-75
2022/08/04 00:49:45;;;;;;;1999.90;999.90;;;24.60;87.60;;;;;;5013365;28;20073;-78
2022/08/04 00:52:17;;;;;;;1999.90;999.90;;;24.50;87.80;;;;;;5009308;28;20092;-75
2022/08/04 00:55:19;;;;;;;1999.90;999.90;;;24.40;88.00;;;;;;4993148;28;20034;-75
2022/08/04 00:58:26;;;;;;;1999.90;999.90;;;24.40;87.90;;;;;;4993523;28;20031;-78
2022/08/04 01:01:01;;;;;;;1999.90;999.90;;;24.30;87.80;;;;;;4993383;28;20022;-76
2022/08/04 01:03:50;;;;;;;1999.90;999.90;;;24.20;88.00;;;;;;5003923;28;20022;-75
2022/08/04 01:06:43;;;;;;;1999.90;999.90;;;24.20;88.20;;;;;;5016883;28;20034;-78
2022/08/04 01:09:50;;;;;;;1999.90;999.90;;;24.10;88.20;;;;;;5016987;28;20485;-78
2022/08/04 01:12:46;;;;;;;1999.90;999.90;;;24.10;88.20;;;;;;5016569;28;20028;-78
2022/08/04 01:15:24;;;;;;;1999.90;999.90;;;24.10;88.30;;;;;;5016395;28;20029;-75
2022/08/04 01:18:05;;;;;;;1999.90;999.90;;;24.10;88.20;;;;;;5016414;28;20022;-75
2022/08/04 01:21:16;;;;;;;1999.90;999.90;;;24.10;88.40;;;;;;5016646;28;20141;-75
2022/08/04 01:23:44;;;;;;;1999.90;999.90;;;24.10;88.60;;;;;;5016697;28;20062;-75
2022/08/04 01:26:48;;;;;;;1999.90;999.90;;;24.20;88.80;;;;;;5016521;28;20079;-78
2022/08/04 01:29:14;;;;;;;;;;;24.20;88.90;;;;;;5017011;28;20489;-75
2022/08/04 01:31:46;;;;;;;1999.90;999.90;;;24.20;89.30;;;;;;5016498;28;19968;-78
2022/08/04 01:34:14;;;;;;;1999.90;999.90;;;24.20;90.10;;;;;;5016407;28;20038;-75
2022/08/04 01:36:45;;;;;;;1999.90;999.90;;;24.20;90.40;;;;;;5016379;28;20072;-78
2022/08/04 01:42:01;;;;;;;1999.90;999.90;;;24.20;90.90;;;;;;5016484;28;20096;-78
2022/08/04 01:44:30;;;;;;;1999.90;999.90;;;24.20;91.20;;;;;;5016346;28;20401;-75
2022/08/04 01:46:56;;;;;;;1999.90;999.90;;;24.10;91.20;;;;;;5016207;28;20456;-75
2022/08/04 01:49:26;;;;;;;1999.90;999.90;;;24.10;91.40;;;;;;5016028;28;20485;-78
2022/08/04 01:51:54;;;;;;;1999.90;999.90;;;24.10;91.50;;;;;;5014835;28;20053;-78
2022/08/04 01:54:20;;;;;;;1999.90;999.90;;;24.10;91.50;;;;;;4996224;28;20048;-78
2022/08/04 01:56:49;;;;;;;1999.90;999.90;;;24.10;91.50;;;;;;4995138;28;20485;-75
2022/08/04 01:59:18;;;;;;;1999.90;999.90;;;24.10;91.50;;;;;;4996450;28;20508;-75
2022/08/04 02:01:44;;;;;;;1999.90;999.90;;;24.10;91.60;;;;;;4996254;28;20033;-78
2022/08/04 02:04:18;;;;;;;1999.90;999.90;;;24.10;91.90;;;;;;5012608;28;20026;-78
2022/08/04 02:07:02;;;;;;;1999.90;999.90;;;24.10;92.40;;;;;;5014683;28;20064;-79
2022/08/04 02:09:36;;;;;;;1999.90;999.90;;;24.10;92.60;;;;;;5016377;28;20513;-75
2022/08/04 02:12:12;;;;;;;1999.90;999.90;;;24.00;93.00;;;;;;5015546;28;20026;-78
2022/08/04 02:14:49;;;;;;;1999.90;999.90;;;24.00;93.90;;;;;;5015690;28;20076;-75
2022/08/04 02:17:24;;;;;;;1999.90;999.90;;;24.00;94.70;;;;;;5014668;28;20511;-75
2022/08/04 02:20:07;;;;;;;1999.90;999.90;;;24.00;95.40;;;;;;5015613;28;20029;-78
2022/08/04 02:22:39;;;;;;;1999.90;999.90;;;23.90;95.70;;;;;;5015620;28;20044;-75
2022/08/04 02:25:08;;;;;;;1999.90;999.90;;;23.90;96.00;;;;;;5015647;28;20442;-78
2022/08/04 02:27:47;;;;;;;1999.90;999.90;;;23.80;96.30;;;;;;5015122;28;20025;-79
2022/08/04 02:30:13;;;;;;;1999.90;999.90;;;23.70;96.30;;;;;;5015787;28;20114;-78
2022/08/04 02:32:40;;;;;;;1999.90;999.90;;;23.60;96.60;;;;;;5015424;28;20069;-75
2022/08/04 02:35:11;;;;;;;1999.90;999.90;;;23.60;96.50;;;;;;5015152;28;20026;-78
2022/08/04 02:37:41;;;;;;;1999.90;999.90;;;23.60;96.70;;;;;;5015421;28;20495;-78
2022/08/04 02:40:10;;;;;;;1999.90;999.90;;;23.60;97.00;;;;;;5015230;28;20038;-75
2022/08/04 02:42:37;;;;;;;1999.90;999.90;;;23.50;97.30;;;;;;5014953;28;20098;-75
2022/08/04 02:45:04;;;;;;;1999.90;999.90;;;23.50;97.50;;;;;;5015143;28;20033;-78
2022/08/04 02:47:30;;;;;;;1999.90;999.90;;;23.50;97.80;;;;;;5015175;28;20026;-75
2022/08/04 02:49:57;;;;;;;1999.90;999.90;;;23.40;98.10;;;;;;5015135;28;20026;-75
2022/08/04 02:52:24;;;;;;;1999.90;999.90;;;23.30;98.30;;;;;;5009485;28;20050;-78
2022/08/04 02:54:55;;;;;;;1999.90;999.90;;;23.30;98.80;;;;;;4995431;28;20097;-78
2022/08/04 02:57:25;;;;;;;1999.90;999.90;;;23.30;99.20;;;;;;4994449;28;20037;-78
2022/08/04 03:00:18;;;;;;;1999.90;999.90;;;23.30;99.60;;;;;;4993959;28;20437;-75
2022/08/04 03:03:06;;;;;;;1999.90;999.90;;;23.30;99.90;;;;;;4997531;28;20026;-75
2022/08/04 03:05:56;;;;;;;1999.90;999.90;;;23.20;99.90;;;;;;5014867;28;20424;-78
2022/08/04 03:08:40;;;;;;;1999.90;999.90;;;23.20;99.90;;;;;;5014851;28;20026;-75
2022/08/04 03:11:24;;;;;;;1999.90;999.90;;;23.10;99.90;;;;;;5014422;28;20026;-76
2022/08/04 03:14:11;;;;;;;1999.90;999.90;;;23.10;99.90;;;;;;5014576;28;20556;-75
2022/08/04 03:16:39;;;;;;;1999.90;999.90;;;23.00;99.90;;;;;;5014460;28;20026;-75
2022/08/04 03:19:32;;;;;;;1999.90;999.90;;;23.00;99.90;;;;;;5014252;28;20053;-78
2022/08/04 03:22:16;;;;;;;1999.90;999.90;;;23.00;99.90;;;;;;5014648;28;20561;-78
2022/08/04 03:24:54;;;;;;;1999.90;999.90;;;23.00;99.90;;;;;;5014499;28;20022;-75
2022/08/04 03:27:38;;;;;;;1999.90;999.90;;;22.90;99.90;;;;;;5014005;28;20034;-75
2022/08/04 03:30:14;;;;;;;1999.90;999.90;;;23.00;99.90;;;;;;5014460;28;20037;-75
2022/08/04 03:33:15;;;;;;;1999.90;999.90;;;22.90;99.90;;;;;;5013872;28;20041;-78
2022/08/04 03:35:50;;;;;;;1999.90;999.90;;;22.90;99.90;;;;;;5014028;28;20065;-78
2022/08/04 03:38:33;;;;;;;1999.90;999.90;;;22.90;99.90;;;;;;5014380;28;20501;-78
2022/08/04 03:41:02;;;;;;;1999.90;999.90;;;23.00;99.90;;;;;;5014163;28;20037;-75
2022/08/04 03:43:54;;;;;;;1999.90;999.90;;;22.90;99.90;;;;;;5014258;28;20026;-75
2022/08/04 03:46:28;;;;;;;1999.90;999.90;;;22.90;99.90;;;;;;5005995;28;20118;-75
2022/08/04 03:49:02;;;;;;;1999.90;999.90;;;22.90;99.90;;;;;;5013843;28;20053;-75
2022/08/04 03:54:45;;;;;;;1999.90;999.90;;;22.90;99.90;;;;;;4994329;28;20045;-75
2022/08/04 03:57:29;;;;;;;1999.90;999.90;;;22.90;99.90;;;;;;4993235;28;20044;-78
2022/08/04 03:59:55;;;;;;;1999.90;999.90;;;22.90;99.90;;;;;;4994062;28;20509;-75
2022/08/04 04:02:43;;;;;;;1999.90;999.90;;;22.80;99.90;;;;;;4995639;28;20049;-78
2022/08/04 04:05:34;;;;;;;1999.90;999.90;;;22.80;99.90;;;;;;5013685;28;20092;-78
2022/08/04 04:08:24;;;;;;;1999.90;999.90;;;22.70;99.90;;;;;;5012432;28;20117;-75
2022/08/04 04:11:35;;;;;;;1999.90;999.90;;;22.70;99.90;;;;;;5012302;28;20041;-78
2022/08/04 04:14:13;;;;;;;1999.90;999.90;;;22.60;99.90;;;;;;5005360;28;20068;-78
2022/08/04 04:16:42;;;;;;;1999.90;999.90;;;22.60;99.90;;;;;;5012967;28;20037;-75
2022/08/04 04:19:29;;;;;;;1999.90;999.90;;;22.50;99.90;;;;;;5013218;28;20022;-75
2022/08/04 04:22:06;;;;;;;1999.90;999.90;;;22.50;99.90;;;;;;5013810;28;20108;-75
2022/08/04 04:25:09;;;;;;;1999.90;999.90;;;22.40;99.90;;;;;;5013480;28;20481;-76
2022/08/04 04:27:44;;;;;;;1999.90;999.90;;;22.40;99.90;;;;;;5013281;28;20066;-78
2022/08/04 04:30:22;;;;;;;1999.90;999.90;;;22.40;99.90;;;;;;5013546;28;20092;-78
2022/08/04 04:32:54;;;;;;;1999.90;999.90;;;22.30;99.90;;;;;;5013387;28;20029;-75
2022/08/04 04:35:19;;;;;;;1999.90;999.90;;;22.30;99.90;;;;;;5013124;28;20037;-75
2022/08/04 04:37:45;;;;;;;1999.90;999.90;;;22.20;99.90;;;;;;5013398;28;20428;-78
2022/08/04 04:40:25;;;;;;;1999.90;999.90;;;22.30;99.90;;;;;;5012809;28;20464;-77
2022/08/04 04:43:18;;;;;;;1999.90;999.90;;;22.20;99.90;;;;;;5013485;28;20030;-78
2022/08/04 04:46:05;;;;;;;1999.90;999.90;;;22.20;99.90;;;;;;5013496;28;20026;-75
2022/08/04 04:49:00;;;;;;;1999.90;999.90;;;22.10;99.90;;;;;;5011887;28;20260;-78
2022/08/04 04:51:42;;;;;;;1999.90;999.90;;;22.10;99.90;;;;;;5011566;28;20053;-78
2022/08/04 04:54:20;;;;;;;1999.90;999.90;;;22.10;99.90;;;;;;5012878;28;20022;-77
2022/08/04 04:56:49;;;;;;;1999.90;999.90;;;22.00;99.90;;;;;;5011014;28;20045;-75
2022/08/04 04:59:20;;;;;;;1999.90;999.90;;;22.00;99.90;;;;;;5013115;28;20033;-75
2022/08/04 05:01:46;;;;;;;1999.90;999.90;;;22.00;99.90;;;;;;5013026;28;20022;-78
2022/08/04 05:04:36;;;;;;;1999.90;999.90;;;22.00;99.90;;;;;;5012848;28;20506;-78
2022/08/04 05:07:17;;;;;;;1999.90;999.90;;;22.00;99.90;;;;;;5013486;28;20026;-75
2022/08/04 05:10:01;;;;;;;1999.90;999.90;;;22.00;99.90;;;;;;5013211;28;20483;-78
2022/08/04 05:12:41;;;;;;;1999.90;999.90;;;21.90;99.90;;;;;;5012505;28;20401;-75
2022/08/04 05:15:09;;;;;;;1999.90;999.90;;;21.90;99.90;;;;;;5012820;28;20065;-75
2022/08/04 05:17:39;;;;;;;1999.90;999.90;;;21.90;99.90;;;;;;5012682;28;20112;-75
2022/08/04 05:20:21;;;;;;;1999.90;999.90;;;21.90;99.90;;;;;;5012833;28;20025;-78
2022/08/04 05:22:57;;;;;;;1999.90;999.90;;;21.90;99.90;;;;;;5012847;28;20033;-78
2022/08/04 05:25:39;;;;;;;1999.90;999.90;;;21.90;99.90;;;;;;5012933;28;20022;-78
2022/08/04 05:28:14;;;;;;;1999.90;999.90;;;22.00;99.90;;;;;;5012476;28;20026;-78
2022/08/04 05:30:47;;;;;;;1999.90;999.90;;;22.00;99.90;;;;;;5007767;28;20033;-75
2022/08/04 05:33:15;;;;;;;1999.90;999.90;;;22.00;99.90;;;;;;5012577;28;20022;-78
2022/08/04 05:35:48;;;;;;;1999.90;999.90;;;22.00;99.90;;;;;;5011103;28;20113;-78
2022/08/04 05:38:19;;;;;;;1999.90;999.90;;;22.10;99.90;;;;;;5006133;28;20517;-75
2022/08/04 05:40:45;;;;;;;1999.90;999.90;;;22.10;99.90;;;;;;4992748;28;20026;-78
2022/08/04 05:43:12;;;;;;;1999.90;999.90;;;22.20;99.90;;;;;;4993390;28;20022;-75
2022/08/04 05:45:40;;;;;;;1999.90;999.90;;;22.30;99.90;;;;;;5004308;28;20017;-78
2022/08/04 05:48:07;;;;;;;1999.90;999.90;;;22.30;99.90;;;;;;5012031;28;20018;-78
2022/08/04 05:50:34;;;;;;;1999.90;999.90;;;22.40;99.90;;;;;;5012406;28;20025;-75
2022/08/04 05:53:00;;;;;;;1999.90;999.90;;;22.40;99.90;;;;;;5015589;28;20045;-75
2022/08/04 05:55:28;;;;;;;1999.90;999.90;;;22.40;99.90;;;;;;5016050;28;20084;-79
2022/08/04 05:57:55;;;;;;;1999.90;999.90;;;22.50;99.90;;;;;;5015166;28;20025;-79
2022/08/04 06:00:23;;;;;;;1999.90;999.90;;;22.50;99.90;;;;;;5015908;28;20105;-75
2022/08/04 06:02:51;;;;;;;1999.90;999.90;;;22.60;99.90;;;;;;5015023;28;20026;-78
2022/08/04 06:05:17;;;;;;;1999.90;999.90;;;22.60;99.90;;;;;;5015853;28;20072;-75
2022/08/04 06:07:44;;;;;;;1999.90;999.90;;;22.70;99.90;;;;;;5014275;28;20022;-78
2022/08/04 06:10:10;;;;;;;1999.90;999.90;;;22.70;99.90;;;;;;5015894;28;20041;-75
2022/08/04 06:12:42;;;;;;;1999.90;999.90;;;22.80;99.90;;;;;;5015289;28;20022;-78
2022/08/04 06:15:12;;;;;;;1999.90;999.90;;;22.90;99.90;;;;;;5015485;28;20544;-75
2022/08/04 06:17:48;;;;;;;1999.90;999.90;;;23.00;99.90;;;;;;5014715;28;20799;-75
2022/08/04 06:20:15;;;;;;;1999.90;999.90;;;23.00;99.90;;;;;;5015364;28;20485;-78
2022/08/04 06:22:43;;;;;;;1999.90;999.90;;;23.20;99.90;;;;;;5011230;28;20018;-78
2022/08/04 06:25:11;;;;;;;1999.90;999.90;;;23.30;99.90;;;;;;5015297;28;20022;-75
2022/08/04 06:27:38;;;;;;;1999.90;999.90;;;23.50;99.90;;;;;;5014425;28;20103;-77
2022/08/04 06:30:08;;;;;;;1999.90;999.90;;;23.70;99.90;;;;;;5015045;28;20097;-75
2022/08/04 06:32:37;;;;;;;1999.90;999.90;;;23.80;99.90;;;;;;5014194;28;20030;-75
2022/08/04 06:35:05;;;;;;;1999.90;999.90;;;23.80;99.90;;;;;;5014737;28;20026;-75
2022/08/04 06:37:33;;;;;;;1999.90;999.90;;;23.90;99.90;;;;;;5013557;28;20504;-78
2022/08/04 06:40:00;;;;;;;1999.90;999.90;;;23.90;99.90;;;;;;5014702;28;20113;-75
2022/08/04 06:42:27;;;;;;;1999.90;999.90;;;23.90;99.90;;;;;;5014971;28;20021;-75
2022/08/04 06:44:56;;;;;;;1999.90;999.90;;;24.00;99.90;;;;;;5014883;28;20494;-75
2022/08/04 06:47:23;;;;;;;1999.90;999.90;;;23.90;99.90;;;;;;5014787;28;20022;-79
2022/08/04 06:49:51;;;;;;;1999.90;999.90;;;24.00;99.90;;;;;;5014913;28;20512;-78
2022/08/04 06:52:19;;;;;;;1999.90;999.90;;;23.90;99.90;;;;;;5014059;28;20046;-78
2022/08/04 06:54:47;;;;;;;1999.90;999.90;;;24.00;99.90;;;;;;5014924;28;20032;-75
2022/08/04 06:57:15;;;;;;;1999.90;999.90;;;24.10;99.90;;;;;;5013824;28;20101;-75
2022/08/04 06:59:45;;;;;;;1999.90;999.90;;;24.10;99.90;;;;;;5012026;28;20037;-75
2022/08/04 07:02:15;;;;;;;1999.90;999.90;;;24.10;99.90;;;;;;5010640;28;20489;-78
2022/08/04 07:04:45;;;;;;;1999.90;999.90;;;24.20;99.90;;;;;;5012690;28;20022;-75
2022/08/04 07:07:12;;;;;;;1999.90;999.90;;;24.30;99.90;;;;;;5010325;28;20034;-75
2022/08/04 07:09:38;;;;;;;1999.90;999.90;;;24.30;99.90;;;;;;5013294;28;20030;-74
2022/08/04 07:12:06;;;;;;;1999.90;999.90;;;24.30;99.90;;;;;;5013169;28;20485;-75
2022/08/04 07:14:34;;;;;;;1999.90;999.90;;;24.20;99.90;;;;;;5012512;28;20448;-75
2022/08/04 07:17:04;;;;;;;1999.90;999.90;;;24.20;99.90;;;;;;5013199;28;20022;-79
2022/08/04 07:19:31;;;;;;;1999.90;999.90;;;24.20;99.90;;;;;;5009688;28;20045;-76
2022/08/04 07:21:59;;;;;;;1999.90;999.90;;;24.30;99.90;;;;;;5010192;28;20388;-77
2022/08/04 07:24:32;;;;;;;1999.90;999.90;;;24.50;99.90;;;;;;5010802;28;20458;-79
2022/08/04 07:26:58;;;;;;;1999.90;999.90;;;24.70;99.90;;;;;;5013349;28;20022;-79
2022/08/04 07:29:25;;;;;;;1999.90;999.90;;;24.90;99.90;;;;;;5013796;28;20026;-79
2022/08/04 07:31:51;;;;;;;1999.90;999.90;;;25.10;99.90;;;;;;5011934;28;20030;-79
2022/08/04 07:34:18;;;;;;;1999.90;999.90;;;25.30;99.90;;;;;;5010842;28;20076;-75
2022/08/04 07:36:44;;;;;;;1999.90;999.90;;;25.50;99.90;;;;;;5013515;28;20026;-75
2022/08/04 07:39:10;;;;;;;1999.90;999.90;;;25.60;99.90;;;;;;5011350;28;20095;-78
2022/08/04 07:41:37;;;;;;;1999.90;999.90;;;25.60;99.90;;;;;;5011756;28;20405;-75
2022/08/04 07:44:03;;;;;;;1999.90;999.90;;;25.70;99.90;;;;;;5012820;28;20026;-79
2022/08/04 07:46:29;;;;;;;1999.90;999.90;;;25.80;99.90;;;;;;5011173;28;20068;-74
2022/08/04 07:48:57;;;;;;;1999.90;999.90;;;26.00;99.90;;;;;;5011988;28;20042;-79
2022/08/04 07:51:23;;;;;;;1999.90;999.90;;;26.10;99.90;;;;;;5012841;28;20080;-79
2022/08/04 07:53:48;;;;;;;1999.90;999.90;;;26.40;99.90;;;;;;5013133;28;20026;-79
2022/08/04 07:56:15;;;;;;;1999.90;999.90;;;26.80;99.30;;;;;;5012711;28;20392;-75
2022/08/04 07:58:41;;;;;;;1999.90;999.90;;;26.90;99.00;;;;;;5012102;28;20026;-75
2022/08/04 08:01:08;;;;;;;1999.90;999.90;;;27.00;98.70;;;;;;5012341;28;20034;-75
2022/08/04 08:03:35;;;;;;;1999.90;999.90;;;26.70;98.90;;;;;;5011118;28;20037;-75
2022/08/04 08:06:00;;;;;;;1999.90;999.90;;;26.30;99.30;;;;;;5012635;28;20045;-75
2022/08/04 08:08:26;;;;;;;1999.90;999.90;;;26.20;99.90;;;;;;5009545;28;20475;-79
2022/08/04 08:10:52;;;;;;;1999.90;999.90;;;26.00;99.90;;;;;;5012813;28;20032;-79
2022/08/04 08:13:18;;;;;;;1999.90;999.90;;;25.60;99.90;;;;;;5011728;28;20489;-75
2022/08/04 08:15:45;;;;;;;1999.90;999.90;;;25.40;99.90;;;;;;5011244;28;20025;-75
2022/08/04 08:18:12;;;;;;;1999.90;999.90;;;25.20;99.90;;;;;;5012026;28;20121;-79
2022/08/04 08:20:38;;;;;;;1999.90;999.90;;;25.00;99.90;;;;;;5011818;28;20021;-75
2022/08/04 08:23:04;;;;;;;1999.90;999.90;;;24.90;99.90;;;;;;5011869;28;20057;-79
2022/08/04 08:25:31;;;;;;;1999.90;999.90;;;24.80;99.90;;;;;;5011858;28;20120;-75
2022/08/04 08:27:58;;;;;;;1999.90;999.90;;;24.80;99.90;;;;;;5005497;28;20544;-74
2022/08/04 08:30:24;;;;;;;1999.90;999.90;;;24.70;99.90;;;;;;5012249;28;20033;-78
2022/08/04 08:32:50;;;;;;;1999.90;999.90;;;24.60;99.90;;;;;;5005979;28;20046;-79
2022/08/04 08:35:16;;;;;;;1999.90;999.90;;;24.50;99.90;;;;;;5012479;28;20037;-76
2022/08/04 08:37:51;;;;;;;1999.90;999.90;;;24.40;99.90;;;;;;5019701;28;20049;-78
2022/08/04 08:40:17;;;;;;;1999.90;999.90;;;24.20;99.90;;;;;;5012647;28;20401;-75
2022/08/04 08:43:10;;;;;;;1999.90;999.90;;;24.30;99.90;;;;;;5012301;28;20034;-79
2022/08/04 08:45:57;;;;;;;1999.90;999.90;;;24.40;99.90;;;;;;5011811;28;20018;-75
2022/08/04 08:48:31;;;;;;;1999.90;999.90;;;24.60;99.90;;;;;;5012106;28;20025;-78
2022/08/04 08:51:21;;;;;;;1999.90;999.90;;;24.60;99.90;;;;;;5011900;28;20042;-79
2022/08/04 08:53:52;;;;;;;1999.90;999.90;;;24.50;99.90;;;;;;5004556;28;20041;-75
2022/08/04 08:56:33;;;;;;;1999.90;999.90;;;24.40;99.90;;;;;;5009481;28;20026;-79
2022/08/04 08:59:40;;;;;;;1999.90;999.90;;;24.30;99.90;;;;;;5007183;28;20045;-75
2022/08/04 09:02:21;;;;;;;1999.90;999.90;;;24.10;99.90;;;;;;5012006;28;20026;-79
2022/08/04 09:05:18;;;;;;;1999.90;999.90;;;24.10;99.90;;;;;;5010823;28;20018;-75
2022/08/04 09:08:11;;;;;;;1999.90;999.90;;;23.90;99.90;;;;;;5003093;28;20030;-75
2022/08/04 09:10:43;;;;;;;;;;;23.90;99.90;;;;;;4993609;28;20085;-79
2022/08/04 09:13:20;;;;;;;1999.90;999.90;;;23.90;99.90;;;;;;4990997;28;19949;-75
2022/08/04 09:16:09;;;;;;;1999.90;999.90;;;23.80;99.90;;;;;;5008116;28;20029;-75
2022/08/04 09:18:53;;;;;;;1999.90;999.90;;;23.80;99.90;;;;;;5011854;28;20033;-75
2022/08/04 09:21:30;;;;;;;1999.90;999.90;;;23.70;99.90;;;;;;5007270;28;20497;-78
2022/08/04 09:24:11;;;;;;;1999.90;999.90;;;23.70;99.90;;;;;;5011153;28;20110;-79
2022/08/04 09:26:58;;;;;;;1999.90;999.90;;;23.60;99.90;;;;;;5016929;28;20559;-75
2022/08/04 09:29:36;;;;;;;1999.90;999.90;;;23.40;99.90;;;;;;5007683;28;20489;-78
2022/08/04 09:32:20;;;;;;;1999.90;999.90;;;23.20;99.90;;;;;;5014601;28;20033;-75
2022/08/04 09:35:01;;;;;;;1999.90;999.90;;;23.20;99.90;;;;;;5013638;28;20378;-75
2022/08/04 09:37:39;;;;;;;1999.90;999.90;;;23.10;99.90;;;;;;5007291;28;20385;-75
2022/08/04 09:40:20;;;;;;;1999.90;999.90;;;23.10;99.90;;;;;;5010807;28;20125;-78
2022/08/04 09:43:24;;;;;;;1999.90;999.90;;;23.00;99.90;;;;;;5012446;28;20097;-78
2022/08/04 09:46:09;;;;;;;1999.90;999.90;;;23.00;99.90;;;;;;4981995;28;20053;-75
2022/08/04 09:48:58;;;;;;;1999.90;999.90;;;23.00;99.90;;;;;;5014762;28;20033;-78
2022/08/04 09:52:01;;;;;;;1999.90;999.90;;;22.90;99.90;;;;;;5014189;28;20056;-78
2022/08/04 09:54:45;;;;;;;1999.90;999.90;;;22.90;99.90;;;;;;5015061;28;20470;-75
2022/08/04 09:57:51;;;;;;;1999.90;999.90;;;22.90;99.90;;;;;;5014110;28;20495;-75
2022/08/04 10:00:19;;;;;;;1999.90;999.90;;;23.00;99.90;;;;;;5013944;28;20520;-74
2022/08/04 10:02:57;;;;;;;1999.90;999.90;;;23.10;99.90;;;;;;5011191;28;20037;-78
2022/08/04 10:05:51;;;;;;;1999.90;999.90;;;23.20;99.90;;;;;;5013496;28;20045;-75
2022/08/04 10:08:56;;;;;;;1999.90;999.90;;;23.20;99.90;;;;;;5000389;28;20496;-74
2022/08/04 10:11:27;;;;;;;1999.90;999.90;;;23.20;99.90;;;;;;5014353;28;20030;-75
2022/08/04 10:14:12;;;;;;;1999.90;999.90;;;23.30;99.90;;;;;;5014431;28;20113;-79
2022/08/04 10:17:17;;;;;;;1999.90;999.90;;;23.20;99.90;;;;;;5006996;28;20025;-78
2022/08/04 10:19:43;;;;;;;1999.90;999.90;;;23.00;99.90;;;;;;4995750;28;20045;-78
2022/08/04 10:22:20;;;;;;;1999.90;999.90;;;22.80;99.90;;;;;;5014777;28;20393;-78
2022/08/04 10:25:23;;;;;;;1999.90;999.90;;;22.80;99.90;;;;;;5011052;28;20527;-75
2022/08/04 10:27:53;;;;;;;1999.90;999.90;;;22.80;99.90;;;;;;5013772;28;20030;-75
2022/08/04 10:30:21;;;;;;;1999.90;999.90;;;23.00;99.90;;;;;;5014163;28;20026;-75
2022/08/04 10:33:01;;;;;;;1999.90;999.90;;;23.00;99.90;;;;;;5013869;28;20036;-78
2022/08/04 10:35:32;;;;;;;1999.90;999.90;;;23.20;99.90;;;;;;5013888;28;20049;-75
2022/08/04 10:38:01;;;;;;;1999.90;999.90;;;23.30;99.90;;;;;;5013593;28;20025;-75
2022/08/04 10:40:44;;;;;;;1999.90;999.90;;;23.50;99.90;;;;;;5013229;28;20091;-75
2022/08/04 10:43:28;;;;;;;;;;;23.70;99.90;;;;;;5006659;28;20025;-79
2022/08/04 10:46:20;;;;;;;1999.90;999.90;;;24.00;99.90;;;;;;5013353;28;19941;-75
2022/08/04 10:48:53;;;;;;;1999.90;999.90;;;24.20;99.90;;;;;;5009271;28;20022;-78
2022/08/04 10:51:28;;;;;;;1999.90;999.90;;;24.60;99.90;;;;;;5011891;28;20096;-75
2022/08/04 10:54:01;;;;;;;1999.90;999.90;;;24.80;99.90;;;;;;5012230;28;20048;-78
2022/08/04 10:56:48;;;;;;;1999.90;999.90;;;25.00;99.90;;;;;;5011112;28;20025;-78
2022/08/04 10:59:41;;;;;;;1999.90;999.90;;;25.00;99.90;;;;;;5013889;28;20524;-78
2022/08/04 11:02:36;;;;;;;1999.90;999.90;;;25.00;99.90;;;;;;5012720;28;20018;-75
2022/08/04 11:05:20;;;;;;;1999.90;999.90;;;24.80;99.90;;;;;;5002667;28;20378;-74
2022/08/04 11:07:50;;;;;;;1999.90;999.90;;;24.70;99.90;;;;;;5012907;28;20033;-78
2022/08/04 11:10:20;;;;;;;1999.90;999.90;;;24.70;99.90;;;;;;5013425;28;20022;-78
2022/08/04 11:12:52;;;;;;;1999.90;999.90;;;25.00;99.90;;;;;;5013303;28;20044;-78
2022/08/04 11:15:22;;;;;;;1999.90;999.90;;;25.50;99.90;;;;;;5012352;28;20033;-74
2022/08/04 11:17:54;;;;;;;1999.90;999.90;;;26.40;99.90;;;;;;5008807;28;20038;-75
2022/08/04 11:20:23;;;;;;;1999.90;999.90;;;27.00;99.90;;;;;;5011691;28;20029;-78
2022/08/04 11:23:02;;;;;;;1999.90;999.90;;;27.10;99.90;;;;;;5009427;28;20030;-75
2022/08/04 11:25:35;;;;;;;1999.90;999.90;;;27.30;99.90;;;;;;5011515;28;20078;-78
2022/08/04 11:28:47;;;;;;;1999.90;999.90;;;28.10;99.90;;;;;;5012850;28;20393;-72
2022/08/04 11:31:29;;;;;;;1999.90;999.90;;;29.30;99.90;;;;;;4944601;29;20538;-72
2022/08/04 11:33:55;;;;;;;1999.90;999.90;;;30.40;99.90;;;;;;4944589;29;21626;-76
2022/08/04 11:36:43;;;;;;;1999.90;999.90;;;30.30;99.90;;;;;;4947051;29;20523;-72
2022/08/04 11:39:23;;;;;;;1999.90;999.90;;;29.60;99.90;;;;;;4955062;28;20030;-72
2022/08/04 11:41:55;;;;;;;1999.90;999.90;;;29.60;99.90;;;;;;4943979;29;20055;-72
2022/08/04 11:44:48;;;;;;;1999.90;999.90;;;29.70;99.90;;;;;;4950100;29;20039;-73
2022/08/04 11:47:22;;;;;;;;;;;30.80;99.40;;;;;;4945238;29;20040;-76
2022/08/04 11:50:09;;;;;;;1999.90;999.90;;;30.80;98.40;;;;;;4932807;28;19915;-76
2022/08/04 11:52:39;;;;;;;1999.90;999.90;;;30.40;98.60;;;;;;4941488;29;20533;-73
2022/08/04 11:55:10;;;;;;;1999.90;999.90;;;30.40;98.20;;;;;;4948090;29;20043;-72
2022/08/04 11:57:36;;;;;;;1999.90;999.90;;;30.80;98.30;;;;;;4944782;29;20031;-76
2022/08/04 12:00:08;;;;;;;1999.90;999.90;;;31.10;97.20;;;;;;4950732;29;20035;-72
2022/08/04 12:03:05;;;;;;;1999.90;999.90;;;31.60;97.10;;;;;;4998104;28;20038;-73
2022/08/04 12:05:33;;;;;;;1999.90;999.90;;;31.80;97.30;;;;;;5008847;28;20481;-76
2022/08/04 12:08:05;;;;;;;1999.90;999.90;;;32.00;96.20;;;;;;5011742;28;20053;-73
2022/08/04 12:10:54;;;;;;;1999.90;999.90;;;31.50;94.70;;;;;;5012565;28;20038;-76
2022/08/04 12:13:26;;;;;;;1999.90;999.90;;;31.30;95.40;;;;;;5011499;28;20148;-76
2022/08/04 12:16:01;;;;;;;1999.90;999.90;;;31.10;95.60;;;;;;5012630;28;20018;-76
2022/08/04 12:18:37;;;;;;;1999.90;999.90;;;31.60;95.30;;;;;;5020495;28;20049;-76
2022/08/04 12:21:08;;;;;;;1999.90;999.90;;;31.20;94.60;;;;;;5011543;28;20026;-73
2022/08/04 12:23:43;;;;;;;1999.90;999.90;;;31.10;95.50;;;;;;5012020;28;20104;-76
2022/08/04 12:26:27;;;;;;;1999.90;999.90;;;31.00;95.30;;;;;;5004651;28;20481;-76
2022/08/04 12:29:00;;;;;;;1999.90;999.90;;;30.90;95.60;;;;;;5011744;28;20066;-73
2022/08/04 12:31:45;;;;;;;1999.90;999.90;;;31.60;95.00;;;;;;5011907;28;20030;-73
2022/08/04 12:34:36;;;;;;;1999.90;999.90;;;31.60;94.40;;;;;;5011713;28;20026;-76
2022/08/04 12:37:09;;;;;;;1999.90;999.90;;;31.90;94.30;;;;;;5009048;28;20038;-73
2022/08/04 12:39:38;;;;;;;1999.90;999.90;;;31.20;94.40;;;;;;5012454;28;20072;-77
2022/08/04 12:42:16;;;;;;;1999.90;999.90;;;31.30;94.70;;;;;;5011691;28;20061;-76
2022/08/04 12:44:48;;;;;;;1999.90;999.90;;;31.40;94.40;;;;;;5011987;28;20508;-73
2022/08/04 12:47:16;;;;;;;1999.90;999.90;;;31.00;94.40;;;;;;5011940;28;20528;-73
2022/08/04 12:49:45;;;;;;;1999.90;999.90;;;30.50;94.90;;;;;;5011340;28;20489;-76